Eckerty, Indiana
Current Conditions -  °F | °C
As of 5:35 AM on Sunday 21 Dec 2014 (Local Time) from KHNB Reporting Station
Clear Clear  
Wind Chill: 17°   Ceiling: Unl
Heat Index: 23°   Visibility: 5mi
Dew Point: 19°   Wind: 5mph
Humidity: 86%   Direction: 90°E
Pressure: 30.27"   Gusts: NA
Location:  38.32°N, 86.61°W
Report Text: KHNB 211035Z AUTO 09004KT 5SM CLR M05/M07 A3027 RMK AO1
Loading
Personal Weather Stations






























Interactive Weather Map New forecast layout! Learn more

10-Day Weather Forecast

Advertisements
Track Severe Weather on mobile